sensor_id;sensor_type;location;lat;lon;timestamp;pressure;altitude;pressure_sealevel;temperature;humidity
70781;BME280;59514;48.810;2.134;2022-09-03T00:00:10;99647.09;;;20.26;73.95
70781;BME280;59514;48.810;2.134;2022-09-03T00:02:50;99647.09;;;20.26;73.97
70781;BME280;59514;48.810;2.134;2022-09-03T00:05:39;99640.91;;;20.20;74.30
70781;BME280;59514;48.810;2.134;2022-09-03T00:13:14;99638.41;;;20.24;74.03
70781;BME280;59514;48.810;2.134;2022-09-03T00:15:41;99638.41;;;20.24;73.99
70781;BME280;59514;48.810;2.134;2022-09-03T00:18:28;99637.97;;;20.17;74.45
70781;BME280;59514;48.810;2.134;2022-09-03T00:21:08;99641.22;;;20.19;74.15
70781;BME280;59514;48.810;2.134;2022-09-03T00:23:38;99631.22;;;20.14;74.44
70781;BME280;59514;48.810;2.134;2022-09-03T00:28:46;99634.16;;;20.18;73.98
70781;BME280;59514;48.810;2.134;2022-09-03T00:33:45;99628.69;;;20.18;74.29
70781;BME280;59514;48.810;2.134;2022-09-03T00:36:22;99633.72;;;20.11;74.67
70781;BME280;59514;48.810;2.134;2022-09-03T00:38:50;99628.78;;;20.13;74.39
70781;BME280;59514;48.810;2.134;2022-09-03T00:46:28;99631.53;;;19.99;74.97
70781;BME280;59514;48.810;2.134;2022-09-03T00:49:38;99639.63;;;20.04;75.22
70781;BME280;59514;48.810;2.134;2022-09-03T00:52:17;99642.75;;;19.98;75.37
70781;BME280;59514;48.810;2.134;2022-09-03T00:54:56;99638.50;;;20.05;75.27
70781;BME280;59514;48.810;2.134;2022-09-03T01:26:31;99642.25;;;19.82;76.66
70781;BME280;59514;48.810;2.134;2022-09-03T01:29:18;99644.25;;;19.76;76.72
70781;BME280;59514;48.810;2.134;2022-09-03T01:40:18;99641.25;;;19.78;77.05
70781;BME280;59514;48.810;2.134;2022-09-03T01:45:51;99643.97;;;19.64;77.71
70781;BME280;59514;48.810;2.134;2022-09-03T01:56:48;99631.38;;;19.68;78.36
70781;BME280;59514;48.810;2.134;2022-09-03T01:59:31;99631.94;;;19.65;78.02
70781;BME280;59514;48.810;2.134;2022-09-03T02:05:04;99644.69;;;19.70;78.16
70781;BME280;59514;48.810;2.134;2022-09-03T02:07:49;99636.81;;;19.68;78.14
70781;BME280;59514;48.810;2.134;2022-09-03T02:11:08;99643.84;;;19.69;78.37
70781;BME280;59514;48.810;2.134;2022-09-03T02:13:34;99642.47;;;19.72;78.11
70781;BME280;59514;48.810;2.134;2022-09-03T02:16:12;99632.97;;;19.69;78.71
70781;BME280;59514;48.810;2.134;2022-09-03T02:18:59;99638.81;;;19.63;78.56
70781;BME280;59514;48.810;2.134;2022-09-03T02:21:31;99639.94;;;19.62;78.76
70781;BME280;59514;48.810;2.134;2022-09-03T02:23:58;99643.03;;;19.55;79.00
70781;BME280;59514;48.810;2.134;2022-09-03T02:26:24;99639.81;;;19.53;79.12
70781;BME280;59514;48.810;2.134;2022-09-03T02:28:51;99637.59;;;19.55;79.27
70781;BME280;59514;48.810;2.134;2022-09-03T02:31:17;99644.44;;;19.53;79.59
70781;BME280;59514;48.810;2.134;2022-09-03T02:33:44;99638.22;;;19.52;79.46
70781;BME280;59514;48.810;2.134;2022-09-03T02:36:13;99633.97;;;19.46;79.71
70781;BME280;59514;48.810;2.134;2022-09-03T02:38:43;99642.91;;;19.47;80.15
70781;BME280;59514;48.810;2.134;2022-09-03T02:41:09;99637.91;;;19.54;80.15
70781;BME280;59514;48.810;2.134;2022-09-03T02:43:49;99637.19;;;19.48;80.13
70781;BME280;59514;48.810;2.134;2022-09-03T02:46:23;99639.19;;;19.43;80.85
70781;BME280;59514;48.810;2.134;2022-09-03T02:48:52;99635.56;;;19.47;80.46
70781;BME280;59514;48.810;2.134;2022-09-03T02:51:17;99649.78;;;19.44;80.87
70781;BME280;59514;48.810;2.134;2022-09-03T02:53:43;99636.97;;;19.45;81.21
70781;BME280;59514;48.810;2.134;2022-09-03T02:56:09;99637.16;;;19.35;81.24
70781;BME280;59514;48.810;2.134;2022-09-03T02:58:34;99646.59;;;19.24;81.97
70781;BME280;59514;48.810;2.134;2022-09-03T03:01:00;99643.50;;;19.30;81.89
70781;BME280;59514;48.810;2.134;2022-09-03T03:03:25;99645.81;;;19.37;81.21
70781;BME280;59514;48.810;2.134;2022-09-03T03:05:53;99638.97;;;19.39;81.24
70781;BME280;59514;48.810;2.134;2022-09-03T03:08:24;99641.41;;;19.41;81.17
70781;BME280;59514;48.810;2.134;2022-09-03T03:10:53;99640.50;;;19.45;80.97
70781;BME280;59514;48.810;2.134;2022-09-03T03:13:21;99642.22;;;19.41;81.06
70781;BME280;59514;48.810;2.134;2022-09-03T03:15:46;99644.44;;;19.39;81.74
70781;BME280;59514;48.810;2.134;2022-09-03T03:18:13;99646.06;;;19.40;81.24
70781;BME280;59514;48.810;2.134;2022-09-03T03:20:40;99640.09;;;19.38;81.18
70781;BME280;59514;48.810;2.134;2022-09-03T03:23:06;99644.75;;;19.38;81.01
70781;BME280;59514;48.810;2.134;2022-09-03T03:25:33;99645.25;;;19.40;81.46
70781;BME280;59514;48.810;2.134;2022-09-03T03:27:58;99648.34;;;19.33;81.43
70781;BME280;59514;48.810;2.134;2022-09-03T03:30:24;99644.38;;;19.26;82.25
70781;BME280;59514;48.810;2.134;2022-09-03T03:32:52;99642.78;;;19.25;82.26
70781;BME280;59514;48.810;2.134;2022-09-03T03:35:17;99642.53;;;19.21;82.45
70781;BME280;59514;48.810;2.134;2022-09-03T03:37:42;99637.34;;;19.25;82.17
70781;BME280;59514;48.810;2.134;2022-09-03T03:40:08;99650.72;;;19.21;82.30
70781;BME280;59514;48.810;2.134;2022-09-03T03:42:34;99636.09;;;19.17;82.30
70781;BME280;59514;48.810;2.134;2022-09-03T03:44:59;99637.72;;;19.18;82.82
70781;BME280;59514;48.810;2.134;2022-09-03T03:47:27;99635.50;;;19.20;82.66
70781;BME280;59514;48.810;2.134;2022-09-03T03:49:52;99645.78;;;19.23;82.22
70781;BME280;59514;48.810;2.134;2022-09-03T03:52:18;99649.00;;;19.25;82.22
70781;BME280;59514;48.810;2.134;2022-09-03T03:54:43;99644.25;;;19.17;82.76
70781;BME280;59514;48.810;2.134;2022-09-03T03:57:08;99651.13;;;19.15;82.82
70781;BME280;59514;48.810;2.134;2022-09-03T03:59:33;99643.53;;;19.12;82.90
70781;BME280;59514;48.810;2.134;2022-09-03T04:01:59;99644.66;;;19.11;82.83
70781;BME280;59514;48.810;2.134;2022-09-03T04:04:24;99645.22;;;19.08;82.98
70781;BME280;59514;48.810;2.134;2022-09-03T04:06:50;99642.09;;;19.01;83.15
70781;BME280;59514;48.810;2.134;2022-09-03T04:09:15;99637.84;;;18.95;83.39
70781;BME280;59514;48.810;2.134;2022-09-03T04:11:40;99628.88;;;18.94;83.95
70781;BME280;59514;48.810;2.134;2022-09-03T04:14:06;99640.78;;;18.98;84.09
70781;BME280;59514;48.810;2.134;2022-09-03T04:16:31;99636.44;;;18.97;83.86
70781;BME280;59514;48.810;2.134;2022-09-03T04:18:57;99638.13;;;18.93;83.74
70781;BME280;59514;48.810;2.134;2022-09-03T04:21:28;99641.66;;;18.93;84.15
70781;BME280;59514;48.810;2.134;2022-09-03T04:23:54;99637.03;;;18.94;83.73
70781;BME280;59514;48.810;2.134;2022-09-03T04:26:23;99638.63;;;18.95;84.18
70781;BME280;59514;48.810;2.134;2022-09-03T04:28:48;99637.63;;;18.91;84.14
70781;BME280;59514;48.810;2.134;2022-09-03T04:31:16;99631.56;;;18.80;84.64
70781;BME280;59514;48.810;2.134;2022-09-03T04:33:42;99628.03;;;18.80;84.72
70781;BME280;59514;48.810;2.134;2022-09-03T04:36:13;99635.00;;;18.86;84.53
70781;BME280;59514;48.810;2.134;2022-09-03T04:38:40;99640.44;;;18.86;84.47
70781;BME280;59514;48.810;2.134;2022-09-03T04:41:08;99640.59;;;18.76;84.76
70781;BME280;59514;48.810;2.134;2022-09-03T04:43:34;99635.16;;;18.76;85.46
70781;BME280;59514;48.810;2.134;2022-09-03T04:46:02;99643.63;;;18.74;85.10
70781;BME280;59514;48.810;2.134;2022-09-03T04:48:29;99643.81;;;18.78;84.70
70781;BME280;59514;48.810;2.134;2022-09-03T04:51:01;99650.91;;;18.79;84.66
70781;BME280;59514;48.810;2.134;2022-09-03T04:53:31;99646.84;;;18.76;84.84
70781;BME280;59514;48.810;2.134;2022-09-03T04:55:56;99641.41;;;18.76;84.92
70781;BME280;59514;48.810;2.134;2022-09-03T04:58:22;99639.78;;;18.75;85.09
70781;BME280;59514;48.810;2.134;2022-09-03T05:00:47;99640.38;;;18.72;85.31
70781;BME280;59514;48.810;2.134;2022-09-03T05:03:12;99641.19;;;18.73;85.11
70781;BME280;59514;48.810;2.134;2022-09-03T05:05:38;99639.94;;;18.65;85.16
70781;BME280;59514;48.810;2.134;2022-09-03T05:08:03;99643.97;;;18.68;85.27
70781;BME280;59514;48.810;2.134;2022-09-03T05:10:29;99647.81;;;18.67;84.70
70781;BME280;59514;48.810;2.134;2022-09-03T05:13:03;99647.81;;;18.67;84.69
70781;BME280;59514;48.810;2.134;2022-09-03T05:15:30;99645.63;;;18.69;84.79
70781;BME280;59514;48.810;2.134;2022-09-03T05:17:58;99651.63;;;18.66;84.82
70781;BME280;59514;48.810;2.134;2022-09-03T05:20:23;99665.47;;;18.51;85.73
70781;BME280;59514;48.810;2.134;2022-09-03T05:22:50;99652.59;;;18.56;85.36
70781;BME280;59514;48.810;2.134;2022-09-03T05:25:15;99652.59;;;18.56;85.38
70781;BME280;59514;48.810;2.134;2022-09-03T05:27:40;99657.22;;;18.56;85.22
70781;BME280;59514;48.810;2.134;2022-09-03T05:30:06;99655.09;;;18.53;85.56
70781;BME280;59514;48.810;2.134;2022-09-03T05:32:32;99665.69;;;18.54;85.21
70781;BME280;59514;48.810;2.134;2022-09-03T05:34:58;99653.09;;;18.58;84.88
70781;BME280;59514;48.810;2.134;2022-09-03T05:37:23;99659.88;;;18.61;85.38
70781;BME280;59514;48.810;2.134;2022-09-03T05:39:49;99669.13;;;18.60;85.25
70781;BME280;59514;48.810;2.134;2022-09-03T05:42:14;99667.78;;;18.57;85.17
70781;BME280;59514;48.810;2.134;2022-09-03T05:44:39;99669.72;;;18.57;85.46
70781;BME280;59514;48.810;2.134;2022-09-03T05:47:05;99670.91;;;18.51;84.90
70781;BME280;59514;48.810;2.134;2022-09-03T05:49:31;99675.22;;;18.52;85.19
70781;BME280;59514;48.810;2.134;2022-09-03T05:51:56;99680.97;;;18.50;85.69
70781;BME280;59514;48.810;2.134;2022-09-03T05:54:22;99681.78;;;18.51;85.26
70781;BME280;59514;48.810;2.134;2022-09-03T05:56:47;99679.84;;;18.51;85.19
70781;BME280;59514;48.810;2.134;2022-09-03T05:59:12;99686.81;;;18.39;86.38
70781;BME280;59514;48.810;2.134;2022-09-03T06:01:41;99685.16;;;18.38;86.16
70781;BME280;59514;48.810;2.134;2022-09-03T06:04:11;99699.78;;;18.42;85.88
70781;BME280;59514;48.810;2.134;2022-09-03T06:06:38;99703.88;;;18.44;86.11
70781;BME280;59514;48.810;2.134;2022-09-03T06:09:12;99699.00;;;18.41;86.62
70781;BME280;59514;48.810;2.134;2022-09-03T06:11:39;99711.25;;;18.39;86.09
70781;BME280;59514;48.810;2.134;2022-09-03T06:14:06;99703.75;;;18.31;86.43
70781;BME280;59514;48.810;2.134;2022-09-03T06:16:35;99704.31;;;18.28;86.75
70781;BME280;59514;48.810;2.134;2022-09-03T06:19:02;99695.00;;;18.34;86.45
70781;BME280;59514;48.810;2.134;2022-09-03T06:21:30;99709.13;;;18.36;86.29
70781;BME280;59514;48.810;2.134;2022-09-03T06:23:56;99705.97;;;18.29;86.59
70781;BME280;59514;48.810;2.134;2022-09-03T06:26:22;99707.00;;;18.33;86.46
70781;BME280;59514;48.810;2.134;2022-09-03T06:28:49;99704.19;;;18.43;86.47
70781;BME280;59514;48.810;2.134;2022-09-03T06:31:16;99714.50;;;18.41;85.81
70781;BME280;59514;48.810;2.134;2022-09-03T06:33:43;99704.69;;;18.45;86.18
70781;BME280;59514;48.810;2.134;2022-09-03T06:36:11;99707.63;;;18.48;85.80
70781;BME280;59514;48.810;2.134;2022-09-03T06:38:38;99709.47;;;18.53;85.55
70781;BME280;59514;48.810;2.134;2022-09-03T06:41:08;99718.59;;;18.62;85.39
70781;BME280;59514;48.810;2.134;2022-09-03T06:43:35;99709.25;;;18.68;84.74
70781;BME280;59514;48.810;2.134;2022-09-03T06:46:15;99711.44;;;18.66;84.63
70781;BME280;59514;48.810;2.134;2022-09-03T06:48:41;99713.09;;;18.67;84.13
70781;BME280;59514;48.810;2.134;2022-09-03T06:51:12;99723.97;;;18.67;84.22
70781;BME280;59514;48.810;2.134;2022-09-03T06:53:40;99716.59;;;18.67;84.37
70781;BME280;59514;48.810;2.134;2022-09-03T06:56:08;99708.22;;;18.64;84.25
70781;BME280;59514;48.810;2.134;2022-09-03T06:58:36;99714.78;;;18.63;84.31
70781;BME280;59514;48.810;2.134;2022-09-03T07:01:07;99715.28;;;18.65;83.59
70781;BME280;59514;48.810;2.134;2022-09-03T07:03:37;99710.78;;;18.55;83.92
70781;BME280;59514;48.810;2.134;2022-09-03T07:06:11;99712.19;;;18.53;84.19
70781;BME280;59514;48.810;2.134;2022-09-03T07:08:37;99713.59;;;18.50;84.39
70781;BME280;59514;48.810;2.134;2022-09-03T07:11:05;99707.28;;;18.55;84.22
70781;BME280;59514;48.810;2.134;2022-09-03T07:13:47;99723.28;;;18.56;83.61
70781;BME280;59514;48.810;2.134;2022-09-03T07:16:38;99719.22;;;18.54;83.68
70781;BME280;59514;48.810;2.134;2022-09-03T07:19:05;99719.03;;;18.50;84.02
70781;BME280;59514;48.810;2.134;2022-09-03T07:21:32;99718.66;;;18.57;83.48
70781;BME280;59514;48.810;2.134;2022-09-03T07:24:01;99724.53;;;18.64;83.51
70781;BME280;59514;48.810;2.134;2022-09-03T07:26:31;99727.59;;;18.57;83.30
70781;BME280;59514;48.810;2.134;2022-09-03T07:28:58;99722.41;;;18.61;83.43
70781;BME280;59514;48.810;2.134;2022-09-03T07:31:35;99734.19;;;18.75;83.06
70781;BME280;59514;48.810;2.134;2022-09-03T07:34:04;99729.25;;;18.77;82.39
70781;BME280;59514;48.810;2.134;2022-09-03T07:36:34;99735.94;;;18.84;81.70
70781;BME280;59514;48.810;2.134;2022-09-03T07:39:00;99735.94;;;18.84;82.37
70781;BME280;59514;48.810;2.134;2022-09-03T07:41:26;99744.00;;;18.89;82.26
70781;BME280;59514;48.810;2.134;2022-09-03T07:43:52;99745.88;;;18.94;81.64
70781;BME280;59514;48.810;2.134;2022-09-03T07:46:20;99741.44;;;18.98;81.37
70781;BME280;59514;48.810;2.134;2022-09-03T07:48:53;99736.00;;;18.98;81.11
70781;BME280;59514;48.810;2.134;2022-09-03T07:51:21;99739.25;;;19.00;81.03
70781;BME280;59514;48.810;2.134;2022-09-03T07:53:48;99749.25;;;19.05;81.28
70781;BME280;59514;48.810;2.134;2022-09-03T07:56:13;99754.38;;;19.06;81.08
70781;BME280;59514;48.810;2.134;2022-09-03T07:58:40;99751.56;;;19.11;80.40
70781;BME280;59514;48.810;2.134;2022-09-03T08:01:25;99758.66;;;19.12;80.62
70781;BME280;59514;48.810;2.134;2022-09-03T08:03:53;99757.53;;;19.13;80.66
70781;BME280;59514;48.810;2.134;2022-09-03T08:06:20;99752.84;;;19.19;80.59
70781;BME280;59514;48.810;2.134;2022-09-03T08:08:46;99746.50;;;19.23;80.16
70781;BME280;59514;48.810;2.134;2022-09-03T08:11:21;99756.28;;;19.24;80.21
70781;BME280;59514;48.810;2.134;2022-09-03T08:13:55;99757.38;;;19.23;80.64
70781;BME280;59514;48.810;2.134;2022-09-03T08:16:33;99767.38;;;19.28;80.46
70781;BME280;59514;48.810;2.134;2022-09-03T08:18:58;99759.09;;;19.38;80.36
70781;BME280;59514;48.810;2.134;2022-09-03T08:21:25;99761.94;;;19.46;80.11
70781;BME280;59514;48.810;2.134;2022-09-03T08:23:52;99768.81;;;19.57;79.42
70781;BME280;59514;48.810;2.134;2022-09-03T08:26:19;99761.84;;;19.51;79.48
70781;BME280;59514;48.810;2.134;2022-09-03T08:28:45;99765.69;;;19.50;79.55
70781;BME280;59514;48.810;2.134;2022-09-03T08:31:12;99775.47;;;19.51;79.70
70781;BME280;59514;48.810;2.134;2022-09-03T08:33:51;99774.56;;;19.56;79.57
70781;BME280;59514;48.810;2.134;2022-09-03T08:36:28;99779.84;;;19.66;79.09
70781;BME280;59514;48.810;2.134;2022-09-03T08:38:59;99783.28;;;19.71;78.84
70781;BME280;59514;48.810;2.134;2022-09-03T08:47:29;99793.41;;;19.85;78.38
70781;BME280;59514;48.810;2.134;2022-09-03T08:52:49;99788.19;;;19.88;78.18
70781;BME280;59514;48.810;2.134;2022-09-03T08:55:27;99797.06;;;19.94;78.30
70781;BME280;59514;48.810;2.134;2022-09-03T09:00:28;99803.34;;;20.08;76.72
70781;BME280;59514;48.810;2.134;2022-09-03T09:03:15;99808.19;;;20.11;76.49
70781;BME280;59514;48.810;2.134;2022-09-03T09:05:52;99809.41;;;20.18;76.15
70781;BME280;59514;48.810;2.134;2022-09-03T09:08:31;99809.03;;;20.25;75.97
70781;BME280;59514;48.810;2.134;2022-09-03T09:11:23;99803.78;;;20.28;75.75
70781;BME280;59514;48.810;2.134;2022-09-03T09:13:57;99805.03;;;20.36;76.04
70781;BME280;59514;48.810;2.134;2022-09-03T09:21:59;99819.75;;;20.35;76.30
70781;BME280;59514;48.810;2.134;2022-09-03T09:24:28;99811.25;;;20.23;76.67
70781;BME280;59514;48.810;2.134;2022-09-03T09:27:03;99808.53;;;20.23;77.03
70781;BME280;59514;48.810;2.134;2022-09-03T09:29:35;99817.41;;;20.28;76.89
70781;BME280;59514;48.810;2.134;2022-09-03T09:32:01;99819.25;;;20.46;76.10
70781;BME280;59514;48.810;2.134;2022-09-03T09:34:33;99832.09;;;20.46;75.44
70781;BME280;59514;48.810;2.134;2022-09-03T09:37:02;99828.34;;;20.42;75.70
70781;BME280;59514;48.810;2.134;2022-09-03T09:39:28;99824.91;;;20.36;75.76
70781;BME280;59514;48.810;2.134;2022-09-03T09:42:01;99824.00;;;20.41;75.85
70781;BME280;59514;48.810;2.134;2022-09-03T09:44:29;99827.66;;;20.50;75.23
70781;BME280;59514;48.810;2.134;2022-09-03T09:47:12;99821.97;;;20.46;75.33
70781;BME280;59514;48.810;2.134;2022-09-03T09:52:18;99831.91;;;20.56;74.64
70781;BME280;59514;48.810;2.134;2022-09-03T09:54:44;99830.38;;;20.50;74.89
70781;BME280;59514;48.810;2.134;2022-09-03T09:57:21;99830.25;;;20.55;74.98
70781;BME280;59514;48.810;2.134;2022-09-03T09:59:46;99834.31;;;20.44;75.55
70781;BME280;59514;48.810;2.134;2022-09-03T10:02:14;99828.94;;;20.52;75.18
70781;BME280;59514;48.810;2.134;2022-09-03T10:04:44;99834.38;;;20.66;74.95
70781;BME280;59514;48.810;2.134;2022-09-03T10:07:25;99834.38;;;20.66;73.88
70781;BME280;59514;48.810;2.134;2022-09-03T10:10:20;99844.22;;;20.53;74.83
70781;BME280;59514;48.810;2.134;2022-09-03T10:15:44;99843.19;;;20.63;74.62
70781;BME280;59514;48.810;2.134;2022-09-03T10:18:25;99848.03;;;20.66;73.88
70781;BME280;59514;48.810;2.134;2022-09-03T10:21:04;99851.19;;;20.46;74.52
70781;BME280;59514;48.810;2.134;2022-09-03T10:26:17;99847.81;;;20.22;76.05
70781;BME280;59514;48.810;2.134;2022-09-03T10:28:49;99856.03;;;20.17;76.42
70781;BME280;59514;48.810;2.134;2022-09-03T10:33:59;99854.28;;;20.26;75.12
70781;BME280;59514;48.810;2.134;2022-09-03T10:36:27;99850.69;;;20.44;74.20
70781;BME280;59514;48.810;2.134;2022-09-03T10:39:05;99851.00;;;20.56;73.90
70781;BME280;59514;48.810;2.134;2022-09-03T10:41:46;99847.03;;;20.62;73.92
70781;BME280;59514;48.810;2.134;2022-09-03T10:50:19;99855.00;;;20.72;73.17
70781;BME280;59514;48.810;2.134;2022-09-03T11:01:02;99854.06;;;20.90;71.41
70781;BME280;59514;48.810;2.134;2022-09-03T11:03:48;99855.53;;;21.01;70.99
70781;BME280;59514;48.810;2.134;2022-09-03T11:06:19;99847.91;;;20.98;70.80
70781;BME280;59514;48.810;2.134;2022-09-03T11:08:59;99849.22;;;21.01;70.82
70781;BME280;59514;48.810;2.134;2022-09-03T11:11:36;99840.31;;;21.22;69.65
70781;BME280;59514;48.810;2.134;2022-09-03T11:16:38;99844.34;;;21.25;69.13
70781;BME280;59514;48.810;2.134;2022-09-03T11:19:08;99840.84;;;21.47;68.14
70781;BME280;59514;48.810;2.134;2022-09-03T11:21:36;99834.50;;;21.60;66.89
70781;BME280;59514;48.810;2.134;2022-09-03T11:24:09;99838.28;;;21.72;66.64
70781;BME280;59514;48.810;2.134;2022-09-03T11:26:38;99845.81;;;21.67;66.46
70781;BME280;59514;48.810;2.134;2022-09-03T11:29:29;99833.25;;;21.66;65.55
70781;BME280;59514;48.810;2.134;2022-09-03T11:32:04;99838.97;;;21.56;65.95
70781;BME280;59514;48.810;2.134;2022-09-03T11:34:48;99838.59;;;21.49;66.49
70781;BME280;59514;48.810;2.134;2022-09-03T11:37:21;99853.00;;;21.40;66.54
70781;BME280;59514;48.810;2.134;2022-09-03T11:42:31;99843.47;;;21.38;66.70
70781;BME280;59514;48.810;2.134;2022-09-03T11:45:10;99841.19;;;21.31;67.59
70781;BME280;59514;48.810;2.134;2022-09-03T11:47:41;99845.16;;;21.25;67.98
70781;BME280;59514;48.810;2.134;2022-09-03T11:50:23;99847.41;;;21.10;69.03
70781;BME280;59514;48.810;2.134;2022-09-03T11:53:32;99849.22;;;21.14;69.67
70781;BME280;59514;48.810;2.134;2022-09-03T11:58:38;99858.94;;;20.93;73.31
70781;BME280;59514;48.810;2.134;2022-09-03T12:01:14;99860.66;;;20.89;75.49
70781;BME280;59514;48.810;2.134;2022-09-03T12:04:03;99857.53;;;20.82;76.82
70781;BME280;59514;48.810;2.134;2022-09-03T12:17:56;99842.59;;;22.48;68.95
70781;BME280;59514;48.810;2.134;2022-09-03T12:23:34;99837.53;;;24.43;63.23
70781;BME280;59514;48.810;2.134;2022-09-03T12:26:16;99843.88;;;25.43;58.84
70781;BME280;59514;48.810;2.134;2022-09-03T12:28:47;99853.56;;;25.00;58.16
70781;BME280;59514;48.810;2.134;2022-09-03T12:31:17;99850.75;;;23.78;61.97
70781;BME280;59514;48.810;2.134;2022-09-03T12:34:09;99852.59;;;24.96;59.35
70781;BME280;59514;48.810;2.134;2022-09-03T12:36:40;99862.47;;;24.13;62.20
70781;BME280;59514;48.810;2.134;2022-09-03T12:39:13;99863.09;;;22.59;67.09
70781;BME280;59514;48.810;2.134;2022-09-03T12:44:31;99856.13;;;21.92;69.46
70781;BME280;59514;48.810;2.134;2022-09-03T12:49:39;99867.03;;;21.70;71.93
70781;BME280;59514;48.810;2.134;2022-09-03T12:52:28;99873.34;;;21.34;76.61
70781;BME280;59514;48.810;2.134;2022-09-03T12:57:33;99868.59;;;21.26;77.70
70781;BME280;59514;48.810;2.134;2022-09-03T13:00:05;99871.91;;;21.01;77.17
70781;BME280;59514;48.810;2.134;2022-09-03T13:02:46;99870.97;;;20.65;78.52
70781;BME280;59514;48.810;2.134;2022-09-03T13:05:31;99883.19;;;20.40;78.95
70781;BME280;59514;48.810;2.134;2022-09-03T13:07:59;99866.41;;;20.33;79.11
70781;BME280;59514;48.810;2.134;2022-09-03T13:10:31;99877.41;;;22.95;69.92
70781;BME280;59514;48.810;2.134;2022-09-03T13:13:02;99878.75;;;25.02;63.62
70781;BME280;59514;48.810;2.134;2022-09-03T13:15:31;99878.09;;;24.29;66.80
70781;BME280;59514;48.810;2.134;2022-09-03T13:23:29;99885.97;;;23.11;68.74
70781;BME280;59514;48.810;2.134;2022-09-03T13:26:19;99878.34;;;22.52;70.76
70781;BME280;59514;48.810;2.134;2022-09-03T13:29:18;99893.00;;;21.59;70.94
70781;BME280;59514;48.810;2.134;2022-09-03T13:31:49;99890.50;;;21.13;71.77
70781;BME280;59514;48.810;2.134;2022-09-03T13:34:39;99891.69;;;20.93;72.39
70781;BME280;59514;48.810;2.134;2022-09-03T13:39:51;99895.13;;;20.99;72.16
70781;BME280;59514;48.810;2.134;2022-09-03T13:42:37;99890.91;;;21.06;71.80
70781;BME280;59514;48.810;2.134;2022-09-03T13:47:44;99886.63;;;21.14;69.65
70781;BME280;59514;48.810;2.134;2022-09-03T13:50:39;99882.59;;;21.11;69.17
70781;BME280;59514;48.810;2.134;2022-09-03T13:53:16;99881.38;;;21.17;68.94
70781;BME280;59514;48.810;2.134;2022-09-03T13:55:52;99883.16;;;21.35;67.97
70781;BME280;59514;48.810;2.134;2022-09-03T14:01:22;99872.34;;;21.30;68.40
70781;BME280;59514;48.810;2.134;2022-09-03T14:03:59;99879.22;;;21.41;67.83
70781;BME280;59514;48.810;2.134;2022-09-03T14:06:39;99881.31;;;21.44;68.40
70781;BME280;59514;48.810;2.134;2022-09-03T14:09:14;99879.34;;;21.59;68.36
70781;BME280;59514;48.810;2.134;2022-09-03T14:17:11;99864.59;;;21.82;66.53
70781;BME280;59514;48.810;2.134;2022-09-03T14:22:31;99866.03;;;22.63;63.59
70781;BME280;59514;48.810;2.134;2022-09-03T14:25:02;99870.50;;;23.15;62.32
70781;BME280;59514;48.810;2.134;2022-09-03T14:27:31;99868.66;;;23.50;59.99
70781;BME280;59514;48.810;2.134;2022-09-03T14:33:10;99865.56;;;23.77;60.09
70781;BME280;59514;48.810;2.134;2022-09-03T14:55:12;99860.53;;;23.19;61.70
70781;BME280;59514;48.810;2.134;2022-09-03T14:57:52;99853.63;;;23.39;61.38
70781;BME280;59514;48.810;2.134;2022-09-03T15:00:22;99862.47;;;24.13;59.04
70781;BME280;59514;48.810;2.134;2022-09-03T15:06:06;99860.09;;;23.85;58.87
70781;BME280;59514;48.810;2.134;2022-09-03T15:08:49;99856.53;;;23.76;59.31
70781;BME280;59514;48.810;2.134;2022-09-03T15:11:21;99857.50;;;23.89;57.40
70781;BME280;59514;48.810;2.134;2022-09-03T15:14:12;99862.19;;;24.06;56.45
70781;BME280;59514;48.810;2.134;2022-09-03T15:24:42;99865.69;;;23.21;59.15
70781;BME280;59514;48.810;2.134;2022-09-03T15:29:50;99867.56;;;22.86;60.25
70781;BME280;59514;48.810;2.134;2022-09-03T15:35:08;99862.53;;;22.71;60.42
70781;BME280;59514;48.810;2.134;2022-09-03T15:37:57;99871.81;;;22.61;60.99
70781;BME280;59514;48.810;2.134;2022-09-03T15:40:33;99873.03;;;22.55;61.51
70781;BME280;59514;48.810;2.134;2022-09-03T15:43:26;99875.13;;;22.50;62.39
70781;BME280;59514;48.810;2.134;2022-09-03T15:45:59;99867.56;;;22.55;62.57
70781;BME280;59514;48.810;2.134;2022-09-03T15:53:53;99868.75;;;23.19;59.32
70781;BME280;59514;48.810;2.134;2022-09-03T15:56:33;99865.69;;;23.21;58.58
70781;BME280;59514;48.810;2.134;2022-09-03T15:59:11;99874.69;;;23.04;59.18
70781;BME280;59514;48.810;2.134;2022-09-03T16:01:47;99867.59;;;23.03;58.88
70781;BME280;59514;48.810;2.134;2022-09-03T16:06:56;99869.72;;;23.15;57.58
70781;BME280;59514;48.810;2.134;2022-09-03T16:14:59;99875.16;;;22.97;56.79
70781;BME280;59514;48.810;2.134;2022-09-03T16:17:35;99873.38;;;23.01;56.99
70781;BME280;59514;48.810;2.134;2022-09-03T16:23:03;99863.72;;;23.04;56.58
70781;BME280;59514;48.810;2.134;2022-09-03T16:25:42;99870.03;;;23.22;56.27
70781;BME280;59514;48.810;2.134;2022-09-03T16:28:16;99870.91;;;23.39;55.81
70781;BME280;59514;48.810;2.134;2022-09-03T16:30:59;99867.53;;;23.68;54.78
70781;BME280;59514;48.810;2.134;2022-09-03T16:36:31;99864.13;;;23.88;52.91
70781;BME280;59514;48.810;2.134;2022-09-03T16:41:45;99874.13;;;23.75;50.61
70781;BME280;59514;48.810;2.134;2022-09-03T16:44:26;99871.38;;;23.84;50.18
70781;BME280;59514;48.810;2.134;2022-09-03T16:49:44;99875.25;;;23.83;50.15
70781;BME280;59514;48.810;2.134;2022-09-03T16:55:06;99874.78;;;23.55;51.37
70781;BME280;59514;48.810;2.134;2022-09-03T17:00:21;99872.44;;;23.23;52.68
70781;BME280;59514;48.810;2.134;2022-09-03T17:05:55;99872.38;;;22.89;54.07
70781;BME280;59514;48.810;2.134;2022-09-03T17:08:36;99879.31;;;22.86;54.54
70781;BME280;59514;48.810;2.134;2022-09-03T17:25:58;99878.16;;;22.79;56.06
70781;BME280;59514;48.810;2.134;2022-09-03T17:29:07;99877.97;;;22.75;56.19
70781;BME280;59514;48.810;2.134;2022-09-03T17:37:17;99888.59;;;22.68;56.64
70781;BME280;59514;48.810;2.134;2022-09-03T17:40:10;99885.38;;;22.66;56.92